Time;durP1;ratioP1;P1;durP2;ratioP2;P2;SDS_P1;SDS_P2;PMS_P1;PMS_P2;Temp;Humidity;BMP_temperature;BMP_pressure;BME280_temperature;BME280_humidity;BME280_pressure;Samples;Min_cycle;Max_cycle;Signal;HPM_P1;HPM_P2
2024/03/08 00:01:09;;;;;;;20.90;9.27;;;6.20;99.90;;;;;;4975873;28;20053;-77
2024/03/08 00:03:35;;;;;;;18.23;9.35;;;6.20;99.90;;;;;;4975894;28;20468;-77
2024/03/08 00:06:01;;;;;;;20.83;10.13;;;6.20;99.90;;;;;;4992837;28;20031;-77
2024/03/08 00:08:27;;;;;;;22.67;9.73;;;6.20;99.90;;;;;;4975753;28;20392;-77
2024/03/08 00:10:52;;;;;;;17.50;9.27;;;6.10;99.90;;;;;;4975419;28;20102;-77
2024/03/08 00:13:18;;;;;;;19.45;9.43;;;6.10;99.90;;;;;;4975690;28;20383;-77
2024/03/08 00:15:43;;;;;;;22.37;9.43;;;6.10;99.90;;;;;;4974954;28;20030;-77
2024/03/08 00:18:10;;;;;;;23.02;9.90;;;6.10;99.90;;;;;;4979480;28;20097;-77
2024/03/08 00:20:35;;;;;;;19.63;9.77;;;6.00;99.90;;;;;;4979337;28;20026;-77
2024/03/08 00:23:01;;;;;;;18.58;8.63;;;6.00;99.90;;;;;;4996312;28;20410;-76
2024/03/08 00:25:27;;;;;;;24.70;10.23;;;6.00;99.90;;;;;;4996531;28;20113;-76
2024/03/08 00:27:55;;;;;;;21.98;9.93;;;6.00;99.90;;;;;;4996087;28;20030;-77
2024/03/08 00:30:22;;;;;;;25.38;9.98;;;6.00;99.90;;;;;;4978985;28;20459;-77
2024/03/08 00:32:48;;;;;;;20.97;10.00;;;5.90;99.90;;;;;;4978544;28;20074;-76
2024/03/08 00:35:14;;;;;;;22.48;9.48;;;5.90;99.90;;;;;;4996400;28;20399;-76
2024/03/08 00:37:41;;;;;;;19.60;9.27;;;6.00;99.90;;;;;;4978848;28;20037;-76
2024/03/08 00:40:08;;;;;;;20.42;9.57;;;5.90;99.90;;;;;;4979397;28;20085;-77
2024/03/08 00:42:35;;;;;;;24.23;9.88;;;5.80;99.90;;;;;;4979011;28;20030;-76
2024/03/08 00:45:01;;;;;;;20.67;10.38;;;5.80;99.90;;;;;;4977943;28;20030;-77
2024/03/08 00:47:26;;;;;;;19.27;9.68;;;5.90;99.90;;;;;;4978878;28;20030;-77
2024/03/08 00:49:53;;;;;;;18.03;9.50;;;5.80;99.90;;;;;;4978297;28;20034;-77
2024/03/08 00:52:19;;;;;;;20.43;10.07;;;5.80;99.90;;;;;;4978597;28;20383;-77
2024/03/08 00:54:44;;;;;;;20.33;9.95;;;5.80;99.90;;;;;;4978428;28;20041;-77
2024/03/08 00:57:11;;;;;;;21.52;9.60;;;5.70;99.90;;;;;;4996104;28;20379;-76
2024/03/08 00:59:38;;;;;;;21.13;9.17;;;5.70;99.90;;;;;;4978630;28;20121;-76
2024/03/08 01:02:04;;;;;;;17.13;8.60;;;5.70;99.90;;;;;;4978058;28;20026;-77
2024/03/08 01:04:29;;;;;;;18.97;8.70;;;5.60;99.90;;;;;;4978320;28;20030;-76
2024/03/08 01:06:59;;;;;;;22.50;9.47;;;5.60;99.90;;;;;;4978048;28;20034;-77
2024/03/08 01:09:26;;;;;;;21.08;9.57;;;5.60;99.90;;;;;;4978352;28;20034;-77
2024/03/08 01:11:54;;;;;;;19.00;9.13;;;5.60;99.90;;;;;;4995405;28;20026;-77
2024/03/08 01:14:22;;;;;;;19.30;8.63;;;5.60;99.90;;;;;;4978326;28;20030;-76
2024/03/08 01:16:48;;;;;;;21.30;9.77;;;5.60;99.90;;;;;;4978002;28;20092;-77
2024/03/08 01:19:13;;;;;;;17.77;9.13;;;5.50;99.90;;;;;;4995753;28;20114;-77
2024/03/08 01:21:39;;;;;;;21.93;9.67;;;5.50;99.90;;;;;;4995484;28;20447;-77
2024/03/08 01:24:05;;;;;;;17.03;9.10;;;5.50;99.90;;;;;;4977658;28;20045;-77
2024/03/08 01:26:31;;;;;;;17.83;8.83;;;5.50;99.90;;;;;;4977291;28;20121;-77
2024/03/08 01:28:56;;;;;;;18.27;9.23;;;5.50;99.90;;;;;;4976609;28;20077;-77
2024/03/08 01:31:22;;;;;;;20.30;9.77;;;5.40;99.90;;;;;;4995297;28;20467;-77
2024/03/08 01:33:49;;;;;;;22.20;9.17;;;5.30;99.90;;;;;;4994755;28;20389;-77
2024/03/08 01:36:15;;;;;;;21.07;10.30;;;5.30;99.90;;;;;;4978079;28;20080;-77
2024/03/08 01:38:42;;;;;;;20.23;9.20;;;5.30;99.90;;;;;;4977912;28;20064;-77
2024/03/08 01:41:08;;;;;;;19.27;9.03;;;5.30;99.90;;;;;;4994663;28;20061;-77
2024/03/08 01:43:34;;;;;;;18.27;9.60;;;5.30;99.90;;;;;;4977563;28;20080;-76
2024/03/08 01:46:00;;;;;;;20.37;9.40;;;5.30;99.90;;;;;;4977449;28;20031;-76
2024/03/08 01:48:27;;;;;;;19.73;9.57;;;5.30;99.90;;;;;;4977774;28;20038;-76
2024/03/08 01:50:55;;;;;;;19.33;9.10;;;5.20;99.90;;;;;;4977068;28;20034;-77
2024/03/08 01:53:20;;;;;;;20.30;8.50;;;5.10;99.90;;;;;;4995020;28;20026;-77
2024/03/08 01:55:49;;;;;;;21.33;9.80;;;5.10;99.90;;;;;;4994252;28;20029;-82
2024/03/08 01:58:15;;;;;;;20.63;9.80;;;5.10;99.90;;;;;;4994979;28;20027;-76
2024/03/08 02:00:46;;;;;;;20.17;8.87;;;5.10;99.90;;;;;;4977687;28;20045;-76
2024/03/08 02:03:12;;;;;;;21.63;9.43;;;5.00;99.90;;;;;;4977298;28;20030;-76
2024/03/08 02:05:40;;;;;;;18.60;9.70;;;5.00;99.90;;;;;;4977301;28;20053;-76
2024/03/08 02:08:07;;;;;;;21.97;9.93;;;5.00;99.90;;;;;;4976873;28;20770;-77
2024/03/08 02:10:36;;;;;;;23.13;9.57;;;5.00;99.90;;;;;;4977365;28;20470;-76
2024/03/08 02:13:02;;;;;;;19.13;9.40;;;4.90;99.90;;;;;;4976653;28;20030;-76
2024/03/08 02:15:51;;;;;;;20.70;9.80;;;4.90;99.90;;;;;;4977314;28;20031;-77
2024/03/08 02:18:18;;;;;;;22.23;8.87;;;4.90;99.90;;;;;;4977196;28;20046;-76
2024/03/08 02:20:44;;;;;;;18.50;8.73;;;4.80;99.90;;;;;;4994566;28;20030;-76
2024/03/08 02:23:09;;;;;;;19.70;9.77;;;4.80;99.90;;;;;;4976524;28;20022;-76
2024/03/08 02:25:36;;;;;;;17.47;8.60;;;4.80;99.90;;;;;;4994349;28;20558;-76
2024/03/08 02:28:01;;;;;;;19.67;9.67;;;4.80;99.90;;;;;;4976485;28;20034;-76
2024/03/08 02:30:29;;;;;;;22.73;10.77;;;4.80;99.90;;;;;;4977092;28;20100;-76
2024/03/08 02:32:55;;;;;;;22.37;9.17;;;4.80;99.90;;;;;;4993966;28;20077;-77
2024/03/08 02:35:21;;;;;;;19.83;8.70;;;4.80;99.90;;;;;;4976665;28;20059;-76
2024/03/08 02:37:47;;;;;;;21.67;9.43;;;4.70;99.90;;;;;;4976909;28;20042;-77
2024/03/08 02:40:13;;;;;;;20.03;9.37;;;4.70;99.90;;;;;;4975697;28;20088;-77
2024/03/08 02:42:39;;;;;;;22.60;10.10;;;4.60;99.90;;;;;;4976831;28;20418;-77
2024/03/08 02:45:06;;;;;;;20.10;9.73;;;4.60;99.90;;;;;;4976331;28;20471;-76
2024/03/08 02:47:31;;;;;;;20.93;9.43;;;4.60;99.90;;;;;;4994004;28;20471;-76
2024/03/08 02:49:57;;;;;;;20.03;9.40;;;4.50;99.90;;;;;;4993590;28;20027;-77
2024/03/08 02:52:23;;;;;;;22.40;9.97;;;4.50;99.90;;;;;;4994145;28;20420;-76
2024/03/08 02:54:49;;;;;;;21.30;10.07;;;4.50;99.90;;;;;;4994033;28;20058;-76
2024/03/08 02:57:15;;;;;;;16.50;8.67;;;4.50;99.90;;;;;;4976901;28;20387;-76
2024/03/08 02:59:41;;;;;;;21.47;9.47;;;4.40;99.90;;;;;;4976512;28;20033;-76
2024/03/08 03:02:06;;;;;;;20.60;9.10;;;4.40;99.90;;;;;;4975924;28;20029;-77
2024/03/08 03:04:34;;;;;;;18.30;9.00;;;4.40;99.90;;;;;;4976188;28;20031;-76
2024/03/08 03:07:00;;;;;;;18.27;9.03;;;4.40;99.90;;;;;;4975966;28;20034;-77
2024/03/08 03:09:27;;;;;;;24.97;9.37;;;4.40;99.90;;;;;;4993919;28;20030;-76
2024/03/08 03:11:54;;;;;;;22.03;9.30;;;4.50;99.90;;;;;;4975859;28;20034;-77
2024/03/08 03:14:21;;;;;;;20.10;9.43;;;4.40;99.90;;;;;;4976288;28;20118;-76
2024/03/08 03:16:47;;;;;;;20.27;9.80;;;4.40;99.90;;;;;;4976361;28;20038;-76
2024/03/08 03:19:12;;;;;;;16.67;8.83;;;4.40;99.90;;;;;;4975846;28;20026;-76
2024/03/08 03:21:38;;;;;;;19.40;9.83;;;4.30;99.90;;;;;;4976373;28;20041;-76
2024/03/08 03:24:09;;;;;;;19.70;9.23;;;4.30;99.90;;;;;;4993028;28;20122;-77
2024/03/08 03:26:41;;;;;;;18.92;9.43;;;4.30;99.90;;;;;;4976087;28;20031;-77
2024/03/08 03:29:08;;;;;;;17.05;8.85;;;4.20;99.90;;;;;;4975739;28;20034;-76
2024/03/08 03:31:34;;;;;;;18.93;9.20;;;4.30;99.90;;;;;;4993315;28;20349;-76
2024/03/08 03:34:03;;;;;;;22.10;9.87;;;4.20;99.90;;;;;;4972060;28;20078;-76
2024/03/08 03:36:30;;;;;;;22.10;8.77;;;4.20;99.90;;;;;;4973015;28;20460;-76
2024/03/08 03:39:10;;;;;;;22.30;9.10;;;4.20;99.90;;;;;;4972361;28;20027;-76
2024/03/08 03:41:36;;;;;;;22.67;9.07;;;4.20;99.90;;;;;;4973116;28;20058;-76
2024/03/08 03:44:02;;;;;;;20.17;9.43;;;4.20;99.90;;;;;;4972324;28;20039;-76
2024/03/08 03:46:27;;;;;;;19.70;9.17;;;4.20;99.90;;;;;;4972749;28;20053;-76
2024/03/08 03:48:55;;;;;;;21.77;9.33;;;4.10;99.90;;;;;;4972337;28;20070;-78
2024/03/08 03:51:21;;;;;;;20.07;9.10;;;4.10;99.90;;;;;;4974221;28;20026;-76
2024/03/08 03:53:47;;;;;;;21.60;9.57;;;4.10;99.90;;;;;;4976657;28;20361;-76
2024/03/08 03:56:12;;;;;;;22.07;8.97;;;4.20;99.90;;;;;;4975794;28;20335;-76
2024/03/08 03:58:39;;;;;;;21.20;9.33;;;4.20;99.90;;;;;;4977671;28;20055;-76
2024/03/08 04:01:05;;;;;;;22.63;10.37;;;4.20;99.90;;;;;;4977123;28;20030;-76
2024/03/08 04:03:31;;;;;;;24.00;10.10;;;4.20;99.90;;;;;;4976335;28;20034;-76
2024/03/08 04:05:57;;;;;;;18.60;8.93;;;4.10;99.90;;;;;;4977157;28;20031;-77
2024/03/08 04:08:23;;;;;;;22.47;9.47;;;4.10;99.90;;;;;;4977449;28;20097;-77
2024/03/08 04:10:50;;;;;;;18.67;8.90;;;4.00;99.90;;;;;;4976199;28;20038;-76
2024/03/08 04:13:16;;;;;;;20.47;8.93;;;4.00;99.90;;;;;;4975627;28;20031;-77
2024/03/08 04:15:44;;;;;;;18.40;8.90;;;4.00;99.90;;;;;;4976107;28;20467;-76
2024/03/08 04:18:09;;;;;;;21.63;8.90;;;4.10;99.90;;;;;;4976873;28;20031;-76
2024/03/08 04:20:35;;;;;;;19.13;8.30;;;4.00;99.90;;;;;;4976095;28;20357;-76
2024/03/08 04:23:02;;;;;;;23.23;9.60;;;3.90;99.90;;;;;;4975466;28;20602;-77
2024/03/08 04:25:27;;;;;;;21.90;9.97;;;3.80;99.90;;;;;;4976986;28;20026;-76
2024/03/08 04:27:53;;;;;;;20.00;8.90;;;3.80;99.90;;;;;;4975816;28;20337;-76
2024/03/08 04:30:21;;;;;;;17.77;8.57;;;3.70;99.90;;;;;;4974932;28;20122;-76
2024/03/08 04:32:47;;;;;;;19.07;9.13;;;3.70;99.90;;;;;;4976059;28;20027;-76
2024/03/08 04:35:13;;;;;;;23.40;9.63;;;3.70;99.90;;;;;;4991440;28;20046;-76
2024/03/08 04:37:39;;;;;;;18.70;8.30;;;3.60;99.90;;;;;;4979008;28;20563;-75
2024/03/08 04:40:05;;;;;;;19.47;8.00;;;3.70;99.90;;;;;;4995849;28;20526;-77
2024/03/08 04:42:32;;;;;;;25.93;9.87;;;3.70;99.90;;;;;;4979060;28;20032;-76
2024/03/08 04:44:58;;;;;;;21.60;8.80;;;3.70;99.90;;;;;;4995659;28;20069;-77
2024/03/08 04:47:24;;;;;;;22.40;10.27;;;3.60;99.90;;;;;;4978823;28;20522;-76
2024/03/08 04:49:50;;;;;;;20.97;8.40;;;3.60;99.90;;;;;;4978888;28;20145;-75
2024/03/08 04:52:16;;;;;;;21.57;9.17;;;3.60;99.90;;;;;;4977685;28;20752;-77
2024/03/08 04:54:42;;;;;;;17.03;8.00;;;3.60;99.90;;;;;;4978722;28;20038;-76
2024/03/08 04:57:08;;;;;;;20.60;8.43;;;3.60;99.90;;;;;;4978306;28;20407;-77
2024/03/08 04:59:33;;;;;;;19.57;8.57;;;3.60;99.90;;;;;;4978762;28;20026;-76
2024/03/08 05:01:59;;;;;;;20.07;8.87;;;3.50;99.90;;;;;;4978094;28;20034;-77
2024/03/08 05:04:25;;;;;;;19.47;8.70;;;3.40;99.90;;;;;;4994269;28;20554;-77
2024/03/08 05:06:50;;;;;;;19.33;8.90;;;3.40;99.90;;;;;;4995260;28;20039;-76
2024/03/08 05:09:17;;;;;;;20.57;8.70;;;3.40;99.90;;;;;;4977764;28;20561;-76
2024/03/08 05:11:43;;;;;;;19.67;8.20;;;3.50;99.90;;;;;;4995539;28;20026;-76
2024/03/08 05:14:10;;;;;;;18.97;8.87;;;3.50;99.90;;;;;;4977172;28;20033;-77
2024/03/08 05:16:35;;;;;;;18.23;8.00;;;3.50;99.90;;;;;;4977792;28;20030;-77
2024/03/08 05:19:02;;;;;;;20.17;8.90;;;3.50;99.90;;;;;;4977422;28;20026;-77
2024/03/08 05:21:28;;;;;;;18.77;8.57;;;3.50;99.90;;;;;;4977994;28;20026;-76
2024/03/08 05:23:54;;;;;;;18.03;8.33;;;3.40;99.90;;;;;;4978226;28;20503;-76
2024/03/08 05:26:20;;;;;;;20.13;8.87;;;3.40;99.90;;;;;;4977677;28;20026;-77
2024/03/08 05:28:47;;;;;;;18.13;8.17;;;3.40;99.90;;;;;;4978072;28;20030;-77
2024/03/08 05:31:24;;;;;;;23.17;9.10;;;3.40;99.90;;;;;;4977588;28;20117;-77
2024/03/08 05:33:50;;;;;;;20.33;8.30;;;3.40;99.90;;;;;;4977627;28;20118;-77
2024/03/08 05:36:18;;;;;;;19.93;8.17;;;3.40;99.90;;;;;;4977479;28;20424;-76
2024/03/08 05:38:44;;;;;;;19.80;9.07;;;3.40;99.90;;;;;;4977944;28;20031;-76
2024/03/08 05:41:11;;;;;;;19.17;8.10;;;3.50;99.90;;;;;;4994881;28;20102;-77
2024/03/08 05:43:37;;;;;;;18.93;8.87;;;3.50;99.90;;;;;;4978085;28;20081;-77
2024/03/08 05:46:04;;;;;;;18.13;8.00;;;3.50;99.90;;;;;;4994456;28;20022;-77
2024/03/08 05:48:32;;;;;;;25.03;8.83;;;3.50;99.90;;;;;;4977551;28;20125;-77
2024/03/08 05:50:57;;;;;;;21.83;9.03;;;3.50;99.90;;;;;;4995138;28;20030;-76
2024/03/08 05:53:23;;;;;;;19.83;8.63;;;3.50;99.90;;;;;;4977174;28;20482;-77
2024/03/08 05:55:49;;;;;;;20.10;8.53;;;3.50;99.90;;;;;;4977680;28;20400;-76
2024/03/08 05:58:15;;;;;;;21.83;9.03;;;3.50;99.90;;;;;;4994297;28;20030;-77
2024/03/08 06:00:40;;;;;;;20.60;8.60;;;3.50;99.90;;;;;;4994701;28;20037;-76
2024/03/08 06:03:06;;;;;;;18.83;8.77;;;3.50;99.90;;;;;;4976864;28;20031;-77
2024/03/08 06:05:31;;;;;;;19.33;9.13;;;3.50;99.90;;;;;;4994852;28;20027;-77
2024/03/08 06:07:57;;;;;;;18.10;8.20;;;3.50;99.90;;;;;;4994195;28;20116;-76
2024/03/08 06:10:23;;;;;;;20.10;9.33;;;3.50;99.90;;;;;;4976802;28;20026;-76
2024/03/08 06:12:48;;;;;;;20.43;8.60;;;3.60;99.90;;;;;;4976923;28;20026;-76
2024/03/08 06:15:14;;;;;;;17.80;8.60;;;3.60;99.90;;;;;;4976151;28;20068;-77
2024/03/08 06:17:43;;;;;;;18.23;8.07;;;3.50;99.90;;;;;;4977060;28;20122;-76
2024/03/08 06:20:12;;;;;;;22.73;8.27;;;3.60;99.90;;;;;;4976547;28;20475;-77
2024/03/08 06:22:41;;;;;;;19.40;8.37;;;3.60;99.90;;;;;;4976972;28;20040;-76
2024/03/08 06:25:16;;;;;;;18.23;8.57;;;3.50;99.90;;;;;;4993680;28;20464;-77
2024/03/08 06:27:42;;;;;;;20.47;8.83;;;3.50;99.90;;;;;;4976759;28;20456;-76
2024/03/08 06:30:09;;;;;;;18.70;8.60;;;3.50;99.90;;;;;;4976180;28;20027;-76
2024/03/08 06:32:36;;;;;;;24.23;10.87;;;3.50;99.90;;;;;;4977081;28;20030;-77
2024/03/08 06:35:05;;;;;;;23.23;9.43;;;3.60;99.90;;;;;;4976575;28;20514;-76
2024/03/08 06:37:32;;;;;;;21.00;8.70;;;3.60;99.90;;;;;;4994272;28;20037;-76
2024/03/08 06:39:57;;;;;;;18.30;8.20;;;3.60;99.90;;;;;;4994229;28;20030;-76
2024/03/08 06:42:23;;;;;;;18.53;8.67;;;3.60;99.90;;;;;;4993606;28;20026;-77
2024/03/08 06:44:49;;;;;;;19.27;8.80;;;3.70;99.90;;;;;;4976885;28;20356;-76
2024/03/08 06:47:18;;;;;;;22.50;9.37;;;3.60;99.90;;;;;;4976108;28;20472;-76
2024/03/08 06:49:43;;;;;;;18.57;8.83;;;3.70;99.90;;;;;;4976561;28;20081;-76
2024/03/08 06:52:10;;;;;;;20.43;9.20;;;3.70;99.90;;;;;;4993187;28;20057;-76
2024/03/08 06:54:36;;;;;;;18.80;8.40;;;3.80;99.90;;;;;;4993643;28;20356;-76
2024/03/08 06:57:03;;;;;;;23.87;9.20;;;3.80;99.90;;;;;;4976176;28;20030;-76
2024/03/08 06:59:29;;;;;;;18.43;8.37;;;3.80;99.90;;;;;;4976132;28;20026;-77
2024/03/08 07:01:55;;;;;;;19.63;8.73;;;3.80;99.90;;;;;;4993578;28;20586;-76
2024/03/08 07:04:21;;;;;;;17.13;8.87;;;3.90;99.90;;;;;;4993125;28;20049;-76
2024/03/08 07:06:49;;;;;;;20.07;9.50;;;3.90;99.90;;;;;;4993654;28;20030;-76
2024/03/08 07:09:18;;;;;;;18.90;8.23;;;3.90;99.90;;;;;;4993613;28;20033;-77
2024/03/08 07:11:44;;;;;;;20.07;8.03;;;4.00;99.90;;;;;;4976420;28;20026;-76
2024/03/08 07:14:09;;;;;;;16.50;8.67;;;4.00;99.90;;;;;;4976052;28;20026;-77
2024/03/08 07:16:35;;;;;;;18.93;8.93;;;4.00;99.90;;;;;;4976422;28;20464;-77
2024/03/08 07:19:01;;;;;;;20.30;9.40;;;4.00;99.90;;;;;;4976222;28;20038;-76
2024/03/08 07:21:27;;;;;;;19.57;8.60;;;4.10;99.90;;;;;;4975535;28;20022;-77
2024/03/08 07:26:27;;;;;;;21.40;9.10;;;4.20;99.90;;;;;;4993508;28;20026;-76
2024/03/08 07:28:56;;;;;;;19.37;8.53;;;4.20;99.90;;;;;;4979975;28;20436;-76
2024/03/08 07:31:31;;;;;;;18.13;9.30;;;4.30;99.90;;;;;;4979214;28;20026;-77
2024/03/08 07:33:58;;;;;;;21.07;8.93;;;4.40;99.90;;;;;;4980028;28;20104;-76
2024/03/08 07:36:24;;;;;;;22.30;8.73;;;4.40;99.90;;;;;;4997217;28;20030;-76
2024/03/08 07:38:49;;;;;;;18.37;8.17;;;4.40;99.90;;;;;;4980213;28;20607;-77
2024/03/08 07:41:16;;;;;;;20.23;9.40;;;4.50;99.90;;;;;;4996664;28;20028;-77
2024/03/08 07:43:42;;;;;;;19.43;9.30;;;4.50;99.90;;;;;;4997497;28;20027;-76
2024/03/08 07:46:10;;;;;;;18.90;8.77;;;4.60;99.90;;;;;;4997259;28;20033;-77
2024/03/08 07:48:36;;;;;;;22.03;9.80;;;4.60;99.90;;;;;;4979879;28;20030;-76
2024/03/08 07:51:03;;;;;;;21.30;9.20;;;4.70;99.90;;;;;;4979891;28;20518;-76
2024/03/08 07:53:28;;;;;;;21.50;8.77;;;4.70;99.90;;;;;;4996673;28;20026;-76
2024/03/08 07:55:54;;;;;;;19.97;9.43;;;4.70;99.90;;;;;;4979931;28;20046;-76
2024/03/08 07:58:19;;;;;;;21.63;8.97;;;4.80;99.90;;;;;;4979326;28;20113;-76
2024/03/08 08:00:46;;;;;;;21.10;9.43;;;4.80;99.90;;;;;;4979882;28;20042;-76
2024/03/08 08:03:12;;;;;;;22.73;9.63;;;4.80;99.90;;;;;;4978877;28;20027;-77
2024/03/08 08:05:38;;;;;;;21.50;9.47;;;4.90;99.90;;;;;;4979561;28;20383;-76
2024/03/08 08:08:06;;;;;;;21.60;9.50;;;4.90;99.90;;;;;;4996843;28;20062;-76
2024/03/08 08:10:32;;;;;;;22.90;10.03;;;5.00;99.90;;;;;;4978459;28;20041;-77
2024/03/08 08:12:58;;;;;;;20.27;9.63;;;5.10;99.90;;;;;;4979611;28;20109;-76
2024/03/08 08:15:24;;;;;;;19.27;9.63;;;5.10;99.90;;;;;;4996353;28;20022;-76
2024/03/08 08:17:51;;;;;;;21.40;9.27;;;5.10;99.90;;;;;;4996738;28;20057;-76
2024/03/08 08:20:18;;;;;;;20.63;9.83;;;5.30;99.90;;;;;;4978992;28;20391;-76
2024/03/08 08:22:44;;;;;;;23.80;9.83;;;5.40;99.90;;;;;;4979309;28;20022;-76
2024/03/08 08:25:12;;;;;;;18.77;8.90;;;5.40;99.90;;;;;;4979078;28;20080;-77
2024/03/08 08:27:39;;;;;;;22.07;9.43;;;5.40;99.90;;;;;;4979310;28;20537;-76
2024/03/08 08:30:08;;;;;;;19.33;9.03;;;5.50;99.90;;;;;;4979235;28;20069;-77
2024/03/08 08:32:35;;;;;;;21.47;9.77;;;5.50;99.90;;;;;;4978670;28;20026;-77
2024/03/08 08:35:00;;;;;;;23.50;9.70;;;5.50;99.90;;;;;;4979003;28;20483;-76
2024/03/08 08:37:26;;;;;;;21.00;9.57;;;5.50;99.90;;;;;;4978326;28;20129;-76
2024/03/08 08:39:52;;;;;;;17.37;9.03;;;5.50;99.90;;;;;;4978942;28;20058;-76
2024/03/08 08:42:18;;;;;;;22.03;9.87;;;5.50;99.90;;;;;;4995738;28;20023;-76
2024/03/08 08:44:43;;;;;;;22.73;10.57;;;5.50;99.90;;;;;;4996342;28;20514;-77
2024/03/08 08:47:09;;;;;;;20.67;8.87;;;5.50;99.90;;;;;;4978587;28;20031;-76
2024/03/08 08:49:35;;;;;;;21.60;9.03;;;5.40;99.90;;;;;;4978336;28;20491;-77
2024/03/08 08:52:00;;;;;;;28.20;10.03;;;5.40;99.90;;;;;;4978591;28;20026;-77
2024/03/08 08:54:27;;;;;;;51.97;11.77;;;5.40;99.90;;;;;;4978329;28;20033;-76
2024/03/08 08:56:53;;;;;;;52.60;11.67;;;5.50;99.90;;;;;;4978434;28;20037;-77
2024/03/08 08:59:19;;;;;;;30.80;9.50;;;5.50;99.90;;;;;;4978069;28;20379;-77
2024/03/08 09:01:48;;;;;;;22.83;9.37;;;5.60;99.90;;;;;;4996203;28;20080;-77
2024/03/08 09:04:14;;;;;;;19.80;9.23;;;5.70;99.90;;;;;;4977782;28;20058;-77
2024/03/08 09:06:41;;;;;;;21.40;9.60;;;5.70;99.90;;;;;;4995837;28;20124;-75
2024/03/08 09:09:09;;;;;;;20.53;9.60;;;5.70;99.90;;;;;;4978531;28;20033;-76
2024/03/08 09:11:34;;;;;;;21.83;9.90;;;5.80;99.90;;;;;;4977838;28;20483;-76
2024/03/08 09:14:01;;;;;;;19.30;8.97;;;5.80;99.90;;;;;;4978203;28;20037;-77
2024/03/08 09:16:27;;;;;;;18.70;9.30;;;5.80;99.90;;;;;;4995116;28;20379;-77
2024/03/08 09:18:53;;;;;;;23.07;10.20;;;5.80;99.90;;;;;;4978313;28;20026;-76
2024/03/08 09:21:18;;;;;;;19.70;9.10;;;5.90;99.90;;;;;;4977980;28;20451;-77
2024/03/08 09:23:44;;;;;;;20.40;9.93;;;6.00;99.90;;;;;;4978329;28;20030;-76
2024/03/08 09:26:12;;;;;;;17.50;8.97;;;6.00;99.90;;;;;;4978200;28;20067;-77
2024/03/08 09:28:38;;;;;;;18.60;9.13;;;6.00;99.90;;;;;;4978078;28;20030;-77
2024/03/08 09:31:05;;;;;;;18.90;9.37;;;6.10;99.90;;;;;;4977969;28;20431;-76
2024/03/08 09:33:31;;;;;;;18.23;8.13;;;6.10;99.90;;;;;;4977374;28;20050;-77
2024/03/08 09:35:59;;;;;;;22.60;9.87;;;6.10;99.90;;;;;;4978247;28;20471;-76
2024/03/08 09:38:25;;;;;;;21.60;9.33;;;6.10;99.90;;;;;;4977940;28;20030;-77
2024/03/08 09:40:52;;;;;;;19.17;9.23;;;6.10;99.90;;;;;;4978339;28;20029;-77
2024/03/08 09:43:18;;;;;;;25.83;10.27;;;6.20;99.90;;;;;;4995003;28;20026;-77
2024/03/08 09:45:46;;;;;;;18.50;8.90;;;6.10;99.90;;;;;;4995496;28;20109;-77
2024/03/08 09:48:12;;;;;;;19.50;8.93;;;6.20;99.90;;;;;;4977596;28;20066;-77
2024/03/08 09:50:39;;;;;;;20.00;8.43;;;6.20;99.90;;;;;;4994641;28;20069;-77
2024/03/08 09:53:08;;;;;;;19.47;9.20;;;6.30;99.90;;;;;;4978229;28;20034;-77
2024/03/08 09:55:36;;;;;;;19.33;8.93;;;6.30;99.90;;;;;;4977621;28;20304;-76
2024/03/08 10:00:50;;;;;;;19.37;9.07;;;6.40;99.90;;;;;;4995310;28;20034;-77
2024/03/08 10:03:15;;;;;;;20.20;9.10;;;6.50;99.90;;;;;;4994622;28;20022;-78
2024/03/08 10:05:41;;;;;;;18.73;8.67;;;6.50;99.90;;;;;;4977918;28;20076;-77
2024/03/08 10:08:08;;;;;;;22.13;9.20;;;6.60;99.90;;;;;;4977854;28;20037;-77
2024/03/08 10:10:34;;;;;;;20.42;8.95;;;6.60;99.90;;;;;;4977270;28;20105;-77
2024/03/08 10:13:00;;;;;;;21.53;9.37;;;6.80;99.90;;;;;;4977326;28;20080;-77
2024/03/08 10:15:29;;;;;;;16.25;8.00;;;6.80;99.90;;;;;;4994311;28;20117;-77
2024/03/08 10:17:58;;;;;;;17.77;8.82;;;6.80;99.90;;;;;;4977552;28;20034;-77
2024/03/08 10:20:23;;;;;;;17.65;8.65;;;6.80;99.90;;;;;;4994363;28;20034;-76
2024/03/08 10:22:49;;;;;;;17.03;8.23;;;6.80;99.90;;;;;;4977455;28;20026;-77
2024/03/08 10:25:15;;;;;;;19.43;9.00;;;6.80;99.90;;;;;;4994722;28;20023;-77
2024/03/08 10:27:41;;;;;;;18.13;8.63;;;6.90;99.90;;;;;;4994659;28;20036;-76
2024/03/08 10:30:10;;;;;;;21.47;9.90;;;6.80;99.90;;;;;;4977551;28;20027;-76
2024/03/08 10:32:36;;;;;;;19.88;9.18;;;6.90;99.90;;;;;;4976388;28;20305;-77
2024/03/08 10:35:01;;;;;;;16.80;8.52;;;6.90;99.90;;;;;;4976995;28;20061;-77
2024/03/08 10:37:29;;;;;;;16.92;8.35;;;7.00;99.90;;;;;;4976746;28;20534;-77
2024/03/08 10:40:15;;;;;;;17.05;8.38;;;7.00;99.90;;;;;;4976925;28;20022;-77
2024/03/08 10:42:51;;;;;;;17.40;8.77;;;7.10;99.90;;;;;;4994353;28;20069;-77
2024/03/08 10:45:22;;;;;;;25.48;10.05;;;7.20;99.90;;;;;;4976947;28;20030;-77
2024/03/08 10:47:55;;;;;;;19.38;8.13;;;7.30;99.90;;;;;;4977395;28;20121;-77
2024/03/08 10:50:21;;;;;;;15.40;8.00;;;7.40;99.90;;;;;;4976736;28;20038;-77
2024/03/08 10:52:51;;;;;;;16.42;7.97;;;7.40;99.90;;;;;;4994419;28;20033;-76
2024/03/08 10:55:20;;;;;;;21.25;8.57;;;7.40;99.90;;;;;;4977006;28;20357;-76
2024/03/08 10:57:47;;;;;;;19.63;8.63;;;7.40;99.90;;;;;;4976768;28;20049;-77
2024/03/08 11:00:13;;;;;;;17.52;8.73;;;7.50;99.90;;;;;;4994258;28;20022;-77
2024/03/08 11:02:43;;;;;;;19.77;8.73;;;7.60;99.90;;;;;;4975689;28;20026;-77
2024/03/08 11:05:40;;;;;;;19.90;9.05;;;7.60;99.90;;;;;;4976783;28;20053;-77
2024/03/08 11:08:19;;;;;;;16.02;8.02;;;7.50;99.90;;;;;;4976599;28;20038;-77
2024/03/08 11:10:53;;;;;;;18.60;9.30;;;7.60;99.90;;;;;;4976978;28;20053;-76
2024/03/08 11:13:35;;;;;;;19.48;8.25;;;7.70;99.90;;;;;;4976380;28;20113;-85
2024/03/08 11:16:05;;;;;;;18.45;9.40;;;7.70;99.90;;;;;;4976935;28;20026;-77
2024/03/08 11:18:33;;;;;;;19.00;8.82;;;7.80;99.90;;;;;;4976369;28;20034;-76
2024/03/08 11:21:01;;;;;;;18.27;8.35;;;7.80;99.90;;;;;;4976700;28;20069;-77
2024/03/08 11:23:31;;;;;;;16.95;8.20;;;7.80;99.90;;;;;;4976209;28;20073;-77
2024/03/08 11:25:56;;;;;;;16.52;8.10;;;7.80;99.90;;;;;;4976547;28;20030;-77
2024/03/08 11:28:26;;;;;;;17.80;8.23;;;7.90;99.90;;;;;;4976269;28;20363;-78
2024/03/08 11:31:01;;;;;;;15.85;8.70;;;8.00;99.90;;;;;;4976972;28;20606;-76
2024/03/08 11:33:28;;;;;;;17.88;8.43;;;8.20;99.90;;;;;;4993295;28;20129;-77
2024/03/08 11:36:16;;;;;;;18.45;8.20;;;8.30;99.90;;;;;;4993734;28;20031;-77
2024/03/08 11:38:48;;;;;;;16.90;8.30;;;8.40;99.90;;;;;;4993588;28;20463;-77
2024/03/08 11:41:19;;;;;;;18.48;8.77;;;8.30;99.90;;;;;;4976714;28;20037;-77
2024/03/08 11:43:46;;;;;;;16.55;7.82;;;8.40;99.90;;;;;;4976504;28;20034;-77
2024/03/08 11:46:13;;;;;;;17.25;8.75;;;8.40;99.90;;;;;;4993622;28;20033;-76
2024/03/08 11:48:43;;;;;;;17.17;8.25;;;8.50;99.90;;;;;;4975744;28;20027;-77
2024/03/08 11:51:13;;;;;;;17.02;8.20;;;8.70;99.90;;;;;;4976142;28;20033;-77
2024/03/08 11:53:40;;;;;;;17.02;8.27;;;8.80;99.90;;;;;;4993020;28;20022;-77
2024/03/08 11:56:11;;;;;;;17.92;8.38;;;8.90;99.90;;;;;;4993460;28;20022;-77
2024/03/08 11:58:37;;;;;;;18.98;8.77;;;9.00;99.90;;;;;;4975759;28;20031;-77
2024/03/08 12:01:07;;;;;;;16.52;8.32;;;9.20;99.90;;;;;;4975885;28;20033;-77
2024/03/08 12:03:33;;;;;;;18.83;7.95;;;9.30;99.90;;;;;;4975450;28;20129;-77
2024/03/08 12:06:00;;;;;;;18.33;9.07;;;9.30;99.90;;;;;;4975936;28;20037;-77
2024/03/08 12:08:29;;;;;;;15.82;7.93;;;9.40;99.90;;;;;;4975498;28;20037;-78
2024/03/08 12:10:59;;;;;;;17.38;8.23;;;9.30;99.90;;;;;;4993437;28;20034;-77
2024/03/08 12:13:30;;;;;;;19.15;8.95;;;9.40;99.90;;;;;;4994942;28;20041;-77
2024/03/08 12:16:00;;;;;;;22.05;8.10;;;9.60;99.90;;;;;;4979720;28;20034;-76
2024/03/08 12:18:27;;;;;;;18.95;8.77;;;9.70;99.90;;;;;;4978712;28;20034;-77
2024/03/08 12:21:07;;;;;;;14.60;8.15;;;9.70;99.90;;;;;;4979310;28;20026;-76
2024/03/08 12:23:37;;;;;;;16.90;7.97;;;9.60;99.90;;;;;;4979147;28;20507;-77
2024/03/08 12:26:25;;;;;;;19.02;8.68;;;9.80;99.90;;;;;;4979443;28;20538;-77
2024/03/08 12:28:51;;;;;;;18.48;8.80;;;9.90;99.90;;;;;;4979646;28;20026;-77
2024/03/08 12:31:20;;;;;;;16.13;7.75;;;10.10;99.90;;;;;;4979490;28;20121;-77
2024/03/08 12:33:53;;;;;;;16.15;7.88;;;10.20;99.90;;;;;;4978492;28;20117;-77
2024/03/08 12:36:20;;;;;;;17.35;8.38;;;10.20;99.90;;;;;;4979378;28;20037;-77
2024/03/08 12:38:49;;;;;;;18.77;8.48;;;10.30;99.90;;;;;;4995883;28;20124;-77
2024/03/08 12:41:17;;;;;;;16.50;7.97;;;10.30;99.90;;;;;;4979032;28;20464;-77
2024/03/08 12:43:48;;;;;;;16.92;8.35;;;10.50;99.90;;;;;;4978719;28;20118;-77
2024/03/08 12:46:14;;;;;;;16.27;8.30;;;10.70;99.90;;;;;;4979257;28;20030;-77
2024/03/08 12:48:40;;;;;;;16.17;8.48;;;10.70;99.90;;;;;;4995474;28;20085;-77
2024/03/08 12:51:10;;;;;;;15.40;8.23;;;10.90;99.90;;;;;;4978930;28;20426;-77